Time;durP1;ratioP1;P1;durP2;ratioP2;P2;SDS_P1;SDS_P2;PMS_P1;PMS_P2;Temp;Humidity;BMP_temperature;BMP_pressure;BME280_temperature;BME280_humidity;BME280_pressure;Samples;Min_cycle;Max_cycle;Signal;HPM_P1;HPM_P2
2023/08/04 00:00:10;;;;;;;3.53;1.00;;;;;;;22.31;68.88;99267.91;4372640;32;32765;-84
2023/08/04 00:02:40;;;;;;;0.10;0.10;;;;;;;22.44;68.03;99260.28;4376832;32;33106;-84
2023/08/04 00:05:08;;;;;;;0.30;0.30;;;;;;;22.34;68.18;99259.53;4387416;32;33922;-84
2023/08/04 00:07:36;;;;;;;0.00;0.00;;;;;;;22.28;68.41;99249.41;4374720;32;33408;-84
2023/08/04 00:10:04;;;;;;;0.47;0.47;;;;;;;22.20;69.00;99244.78;4378462;32;34034;-84
2023/08/04 00:12:32;;;;;;;0.32;0.32;;;;;;;22.26;68.77;99292.56;4386684;32;32430;-84
2023/08/04 00:15:00;;;;;;;8.68;2.42;;;;;;;22.12;68.91;99369.25;4381858;32;32633;-83
2023/08/04 00:17:30;;;;;;;0.37;0.37;;;;;;;21.63;69.90;99398.19;4386747;32;32519;-84
2023/08/04 00:19:57;;;;;;;0.65;0.40;;;;;;;21.50;68.75;99407.56;4380324;32;33962;-83
2023/08/04 00:22:25;;;;;;;0.10;0.10;;;;;;;21.30;68.42;99396.84;4378265;32;34046;-82
2023/08/04 00:24:53;;;;;;;0.28;0.28;;;;;;;21.04;69.24;99426.16;4373418;32;32761;-83
2023/08/04 00:27:21;;;;;;;0.10;0.10;;;;;;;21.36;67.88;99443.78;4381944;32;33944;-83
2023/08/04 00:29:48;;;;;;;0.20;0.17;;;;;;;21.41;67.73;99409.28;4378620;32;32442;-82
2023/08/04 00:32:16;;;;;;;0.20;0.20;;;;;;;21.14;68.18;99349.12;4379828;32;32297;-83
2023/08/04 00:34:44;;;;;;;0.05;0.05;;;;;;;20.73;70.16;99381.66;4374152;32;33507;-83
2023/08/04 00:37:11;;;;;;;0.10;0.10;;;;;;;20.87;69.28;99390.13;4364852;32;34670;-83
2023/08/04 00:39:39;;;;;;;2.55;1.27;;;;;;;21.15;68.20;99348.13;4374318;32;33240;-83
2023/08/04 00:42:07;;;;;;;0.17;0.17;;;;;;;21.08;68.55;99338.09;4384904;32;32639;-83
2023/08/04 00:44:36;;;;;;;1.90;0.17;;;;;;;20.75;71.05;99350.16;4365709;32;34609;-83
2023/08/04 00:47:05;;;;;;;0.00;0.00;;;;;;;20.66;71.98;99363.47;4377110;32;32225;-83
2023/08/04 00:49:33;;;;;;;0.32;0.32;;;;;;;20.81;70.79;99358.50;4378306;32;32823;-83
2023/08/04 00:52:00;;;;;;;0.03;0.03;;;;;;;21.00;70.49;99336.16;4379545;32;32894;-83
2023/08/04 00:54:30;;;;;;;0.37;0.20;;;;;;;20.97;70.95;99321.19;4375284;32;34468;-83
2023/08/04 00:56:58;;;;;;;2.28;0.45;;;;;;;20.93;70.94;99330.50;4380339;32;35816;-84
2023/08/04 00:59:27;;;;;;;0.10;0.10;;;;;;;20.84;71.14;99330.53;4388801;32;32517;-84
2023/08/04 01:01:55;;;;;;;0.10;0.10;;;;;;;21.04;70.47;99315.25;4383012;32;33238;-84
2023/08/04 01:04:23;;;;;;;0.37;0.37;;;;;;;21.15;69.94;99301.66;4383302;32;33622;-84
2023/08/04 01:07:06;;;;;;;1.55;1.05;;;;;;;21.37;68.68;99290.56;4371450;32;33398;-84
2023/08/04 01:09:53;;;;;;;0.28;0.28;;;;;;;21.13;70.00;99304.47;4387374;32;34575;-83
2023/08/04 01:12:35;;;;;;;0.15;0.13;;;;;;;21.21;69.96;99355.59;4373459;32;32156;-84
2023/08/04 01:15:04;;;;;;;0.60;0.25;;;;;;;21.21;70.40;99341.31;4388280;32;35012;-85
2023/08/04 01:17:32;;;;;;;0.47;0.47;;;;;;;21.16;70.35;99297.97;4373395;32;34680;-85
2023/08/04 01:20:00;;;;;;;0.32;0.32;;;;;;;21.11;70.59;99300.25;4396764;32;33668;-84
2023/08/04 01:22:28;;;;;;;0.47;0.47;;;;;;;21.37;69.44;99300.47;4398485;32;33912;-83
2023/08/04 01:24:56;;;;;;;0.00;0.00;;;;;;;21.34;69.16;99317.72;4387736;32;33348;-83
2023/08/04 01:27:37;;;;;;;0.25;0.25;;;;;;;21.14;70.67;99343.75;4373455;32;33903;-83
2023/08/04 01:30:10;;;;;;;0.10;0.10;;;;;;;21.13;71.18;99347.44;4374854;32;32623;-83
2023/08/04 01:32:37;;;;;;;0.13;0.13;;;;;;;21.21;71.29;99335.94;4374209;32;33270;-83
2023/08/04 01:35:07;;;;;;;0.05;0.05;;;;;;;21.10;72.08;99358.47;4377065;32;33261;-83
2023/08/04 01:37:34;;;;;;;0.40;0.40;;;;;;;21.15;71.93;99356.19;4375056;32;33679;-83
2023/08/04 01:40:02;;;;;;;0.80;0.70;;;;;;;21.59;69.64;99332.31;4378007;32;32864;-83
2023/08/04 01:42:31;;;;;;;5.15;0.55;;;;;;;21.75;69.01;99331.69;4385737;32;32684;-82
2023/08/04 01:44:58;;;;;;;0.77;0.77;;;;;;;21.76;69.04;99329.81;4389475;32;32697;-82
2023/08/04 01:47:26;;;;;;;0.20;0.20;;;;;;;21.82;68.97;99323.84;4370248;32;33600;-82
2023/08/04 01:49:54;;;;;;;0.10;0.10;;;;;;;21.79;69.03;99321.44;4372990;32;33529;-82
2023/08/04 01:52:22;;;;;;;0.50;0.45;;;;;;;21.57;70.07;99339.66;4373749;32;31878;-82
2023/08/04 01:54:49;;;;;;;10.07;0.52;;;;;;;21.50;70.61;99332.34;4374854;32;32248;-82
2023/08/04 01:57:17;;;;;;;0.22;0.22;;;;;;;21.38;71.33;99345.97;4375713;32;33464;-82
2023/08/04 01:59:45;;;;;;;0.80;0.80;;;;;;;21.40;71.23;99354.72;4365965;32;34017;-82
2023/08/04 02:02:12;;;;;;;0.32;0.30;;;;;;;21.32;71.76;99351.09;4374419;32;32529;-86
2023/08/04 02:04:40;;;;;;;4.03;0.85;;;;;;;21.41;71.63;99361.81;4375171;32;33127;-85
2023/08/04 02:07:08;;;;;;;5.32;1.05;;;;;;;21.53;71.42;99340.97;4376934;32;34069;-85
2023/08/04 02:09:35;;;;;;;0.13;0.13;;;;;;;22.06;68.98;99318.72;4374828;32;34571;-84
2023/08/04 02:12:03;;;;;;;0.30;0.30;;;;;;;22.06;68.62;99297.22;4376110;32;33288;-85
2023/08/04 02:14:32;;;;;;;0.32;0.22;;;;;;;21.52;70.89;99301.66;4374393;32;34055;-84
2023/08/04 02:16:59;;;;;;;0.43;0.43;;;;;;;21.34;72.10;99306.97;4361602;32;33377;-83
2023/08/04 02:19:37;;;;;;;3.00;0.85;;;;;;;21.52;71.36;99306.19;4380542;32;33604;-83
2023/08/04 02:22:05;;;;;;;0.00;0.00;;;;;;;21.54;71.50;99310.41;4377146;32;32563;-83
2023/08/04 02:24:33;;;;;;;0.10;0.10;;;;;;;21.55;71.10;99309.41;4382059;32;32913;-83
2023/08/04 02:27:00;;;;;;;0.37;0.10;;;;;;;21.60;70.87;99304.47;4387430;32;32762;-83
2023/08/04 02:29:28;;;;;;;0.80;0.32;;;;;;;21.67;70.70;99308.22;4383678;32;32786;-83
2023/08/04 02:31:56;;;;;;;0.30;0.30;;;;;;;21.71;70.52;99324.91;4374627;32;32684;-83
2023/08/04 02:34:24;;;;;;;0.20;0.20;;;;;;;21.86;69.62;99319.88;4393305;32;32946;-83
2023/08/04 02:36:52;;;;;;;0.50;0.43;;;;;;;21.37;70.28;99317.44;4385923;32;33028;-82
2023/08/04 02:39:20;;;;;;;0.20;0.20;;;;;;;21.63;69.41;99312.19;4373974;32;33814;-82
2023/08/04 02:41:47;;;;;;;0.00;0.00;;;;;;;21.63;68.83;99301.47;4395610;32;34178;-82
2023/08/04 02:44:15;;;;;;;0.00;0.00;;;;;;;21.67;68.74;99285.88;4368158;32;32381;-82
2023/08/04 02:46:45;;;;;;;0.10;0.10;;;;;;;21.79;67.91;99282.00;4363374;32;34113;-82
2023/08/04 02:49:12;;;;;;;0.00;0.00;;;;;;;21.55;68.23;99287.91;4385370;32;32117;-82
2023/08/04 02:51:40;;;;;;;0.30;0.30;;;;;;;21.26;70.37;99308.66;4372388;32;32871;-82
2023/08/04 02:54:09;;;;;;;0.00;0.00;;;;;;;21.39;69.59;99338.75;4379370;32;34662;-82
2023/08/04 02:56:37;;;;;;;2.47;0.43;;;;;;;21.27;69.83;99372.97;4376008;32;34763;-83
2023/08/04 02:59:04;;;;;;;1.20;0.40;;;;;;;21.06;70.44;99402.69;4370110;32;32854;-83
2023/08/04 03:01:32;;;;;;;0.95;0.77;;;;;;;21.01;70.85;99412.16;4371881;32;34071;-83
2023/08/04 03:04:00;;;;;;;0.82;0.80;;;;;;;20.84;71.33;99405.66;4372808;32;33742;-83
2023/08/04 03:06:27;;;;;;;10.00;0.57;;;;;;;20.74;71.38;99391.41;4379875;32;34787;-83
2023/08/04 03:08:55;;;;;;;0.10;0.10;;;;;;;20.77;71.65;99388.44;4381471;32;34100;-83
2023/08/04 03:11:24;;;;;;;0.82;0.80;;;;;;;20.69;71.27;99363.16;4391582;32;32465;-83
2023/08/04 03:13:52;;;;;;;0.75;0.75;;;;;;;21.01;70.45;99347.75;4378121;32;32870;-83
2023/08/04 03:16:19;;;;;;;0.08;0.08;;;;;;;21.07;69.85;99341.78;4372707;32;35457;-83
2023/08/04 03:18:47;;;;;;;0.00;0.00;;;;;;;20.93;70.90;99345.75;4354665;32;32817;-84
2023/08/04 03:21:15;;;;;;;0.00;0.00;;;;;;;20.76;71.56;99349.19;4373802;32;32975;-84
2023/08/04 03:23:43;;;;;;;0.80;0.10;;;;;;;20.88;71.80;99343.50;4370583;32;33150;-84
2023/08/04 03:26:10;;;;;;;12.93;0.50;;;;;;;21.17;70.02;99340.78;4372078;32;32631;-84
2023/08/04 03:28:38;;;;;;;0.30;0.30;;;;;;;21.05;70.55;99333.88;4366333;32;34188;-85
2023/08/04 03:31:06;;;;;;;0.00;0.00;;;;;;;21.34;69.35;99328.44;4375763;32;33797;-84
2023/08/04 03:33:35;;;;;;;0.52;0.52;;;;;;;21.27;69.74;99329.16;4390682;32;34213;-83
2023/08/04 03:36:03;;;;;;;0.52;0.52;;;;;;;21.23;69.99;99332.16;4374677;32;33958;-83
2023/08/04 03:38:31;;;;;;;0.10;0.10;;;;;;;21.26;69.68;99340.88;4375998;32;35108;-83
2023/08/04 03:40:59;;;;;;;0.00;0.00;;;;;;;21.36;69.43;99347.09;4362558;32;32740;-83
2023/08/04 03:43:26;;;;;;;0.45;0.20;;;;;;;21.36;69.37;99353.31;4364213;32;33498;-83
2023/08/04 03:45:54;;;;;;;0.00;0.00;;;;;;;21.12;70.52;99356.47;4393630;32;32935;-83
2023/08/04 03:48:21;;;;;;;0.10;0.10;;;;;;;21.27;69.88;99370.28;4381165;32;32724;-83
2023/08/04 03:50:49;;;;;;;0.03;0.03;;;;;;;21.09;71.04;99385.47;4384719;32;32097;-82
2023/08/04 03:53:16;;;;;;;0.37;0.20;;;;;;;20.92;71.96;99397.75;4383925;32;32856;-82
2023/08/04 03:55:44;;;;;;;0.00;0.00;;;;;;;20.75;72.37;99396.66;4369233;32;34415;-82
2023/08/04 03:58:11;;;;;;;0.00;0.00;;;;;;;20.86;72.17;99412.59;4395345;32;34282;-82
2023/08/04 04:00:39;;;;;;;0.00;0.00;;;;;;;20.64;72.32;99437.00;4381000;32;90221;-82
2023/08/04 04:03:07;;;;;;;0.20;0.20;;;;;;;21.09;70.85;99413.16;4370772;32;34256;-82
2023/08/04 04:05:35;;;;;;;0.20;0.20;;;;;;;20.54;73.11;99404.81;4387716;32;32632;-82
2023/08/04 04:08:02;;;;;;;2.08;0.73;;;;;;;20.20;74.73;99418.56;4373004;32;33130;-83
2023/08/04 04:10:30;;;;;;;1.87;0.80;;;;;;;20.28;74.30;99425.09;4385114;32;32861;-82
2023/08/04 04:12:58;;;;;;;0.25;0.25;;;;;;;20.56;72.79;99444.94;4365406;32;34139;-82
2023/08/04 04:15:25;;;;;;;1.05;0.57;;;;;;;20.50;72.91;99475.81;4379511;32;34014;-82
2023/08/04 04:17:53;;;;;;;1.05;0.85;;;;;;;20.30;73.64;99471.38;4376682;32;33707;-82
2023/08/04 04:20:21;;;;;;;0.60;0.50;;;;;;;20.64;71.57;99459.31;4374916;32;33662;-82
2023/08/04 04:22:48;;;;;;;0.40;0.40;;;;;;;20.39;73.06;99454.44;4373441;32;34538;-83
2023/08/04 04:25:16;;;;;;;0.10;0.10;;;;;;;20.71;72.26;99404.13;4385588;32;32436;-82
2023/08/04 04:27:43;;;;;;;1.77;0.68;;;;;;;21.01;70.77;99396.91;4373378;32;34506;-82
2023/08/04 04:30:11;;;;;;;0.00;0.00;;;;;;;20.99;70.98;99387.31;4371065;32;31935;-82
2023/08/04 04:32:39;;;;;;;0.55;0.35;;;;;;;21.05;70.76;99376.84;4391308;32;33671;-82
2023/08/04 04:35:06;;;;;;;0.43;0.43;;;;;;;20.87;71.38;99376.72;4387533;32;34028;-82
2023/08/04 04:37:34;;;;;;;0.43;0.43;;;;;;;20.82;72.25;99376.28;4392170;32;33453;-82
2023/08/04 04:40:02;;;;;;;0.00;0.00;;;;;;;20.84;72.46;99374.34;4359610;32;31224;-82
2023/08/04 04:42:33;;;;;;;0.10;0.10;;;;;;;20.83;73.48;99377.13;4367737;32;33960;-82
2023/08/04 04:45:01;;;;;;;0.32;0.20;;;;;;;21.11;72.28;99364.66;4379487;32;34690;-82
2023/08/04 04:47:30;;;;;;;1.25;0.40;;;;;;;21.04;72.88;99372.47;4383489;32;33599;-82
2023/08/04 04:49:57;;;;;;;0.15;0.15;;;;;;;21.22;72.59;99356.44;4391026;32;33425;-83
2023/08/04 04:52:36;;;;;;;0.30;0.30;;;;;;;21.42;72.23;99346.53;4377985;32;33269;-82
2023/08/04 04:55:05;;;;;;;0.30;0.30;;;;;;;21.39;72.46;99333.38;4373832;32;33130;-82
2023/08/04 04:57:37;;;;;;;1.27;0.37;;;;;;;21.46;72.68;99334.50;4377096;32;33958;-82
2023/08/04 05:00:05;;;;;;;;;;;;;;;21.64;72.47;99335.38;4387519;32;32947;-81
2023/08/04 05:02:32;;;;;;;0.15;0.10;;;;;;;21.70;72.25;99329.44;4380681;32;34305;-83
2023/08/04 05:05:00;;;;;;;0.37;0.22;;;;;;;21.82;71.92;99324.69;4375842;32;33969;-83
2023/08/04 05:07:28;;;;;;;5.57;0.65;;;;;;;21.82;72.23;99327.38;4380990;32;34189;-83
2023/08/04 05:09:55;;;;;;;0.47;0.47;;;;;;;22.12;71.15;99322.69;4379343;32;31680;-82
2023/08/04 05:12:23;;;;;;;0.10;0.10;;;;;;;21.90;71.51;99329.31;4364962;32;33065;-83
2023/08/04 05:14:56;;;;;;;0.20;0.20;;;;;;;22.22;69.94;99324.31;4371550;32;34025;-83
2023/08/04 05:17:24;;;;;;;0.37;0.37;;;;;;;22.38;69.04;99320.09;4376384;32;32563;-83
2023/08/04 05:19:51;;;;;;;0.25;0.17;;;;;;;22.31;68.94;99327.06;4378784;32;34722;-82
2023/08/04 05:22:19;;;;;;;0.22;0.22;;;;;;;21.92;71.22;99327.31;4391595;32;33151;-83
2023/08/04 05:24:47;;;;;;;0.00;0.00;;;;;;;21.98;71.06;99326.69;4396053;32;34564;-83
2023/08/04 05:27:27;;;;;;;0.62;0.05;;;;;;;22.23;70.12;99330.56;4372592;32;32452;-83
2023/08/04 05:29:55;;;;;;;0.03;0.03;;;;;;;22.31;69.89;99322.53;4367036;32;36209;-83
2023/08/04 05:32:23;;;;;;;1.10;0.13;;;;;;;22.29;69.83;99318.34;4383521;32;32904;-83
2023/08/04 05:34:50;;;;;;;0.20;0.20;;;;;;;22.14;71.05;99321.56;4374227;32;35136;-83
2023/08/04 05:37:21;;;;;;;0.10;0.10;;;;;;;22.29;70.68;99323.72;4374880;32;32290;-82
2023/08/04 05:39:50;;;;;;;0.20;0.20;;;;;;;22.35;70.63;99318.53;4367688;32;31836;-83
2023/08/04 05:42:17;;;;;;;0.03;0.03;;;;;;;22.33;70.83;99319.72;4375533;32;34641;-83
2023/08/04 05:44:45;;;;;;;0.10;0.10;;;;;;;22.54;70.29;99312.16;4384540;32;33342;-83
2023/08/04 05:47:13;;;;;;;0.08;0.08;;;;;;;22.56;70.76;99299.41;4386118;32;32427;-83
2023/08/04 05:49:40;;;;;;;1.10;0.47;;;;;;;22.74;70.89;99305.63;4385251;32;31732;-83
2023/08/04 05:52:08;;;;;;;0.15;0.15;;;;;;;22.88;70.11;99304.19;4374992;32;33085;-83
2023/08/04 05:54:35;;;;;;;0.15;0.15;;;;;;;23.07;69.98;99313.91;4376252;32;34146;-83
2023/08/04 05:57:03;;;;;;;0.00;0.00;;;;;;;23.16;69.01;99312.97;4373341;32;32936;-83
2023/08/04 05:59:31;;;;;;;0.37;0.37;;;;;;;23.25;68.92;99314.72;4376854;32;32509;-83
2023/08/04 06:01:59;;;;;;;1.15;0.60;;;;;;;23.22;69.16;99308.81;4372308;32;33650;-83
2023/08/04 06:04:26;;;;;;;0.20;0.20;;;;;;;23.43;68.50;99303.84;4376042;32;34027;-82
2023/08/04 06:06:54;;;;;;;0.10;0.10;;;;;;;23.29;68.83;99295.53;4395756;32;33467;-83
2023/08/04 06:09:21;;;;;;;0.45;0.28;;;;;;;23.36;68.54;99301.97;4375996;32;34147;-83
2023/08/04 06:11:49;;;;;;;0.22;0.22;;;;;;;23.47;68.32;99301.69;4385188;32;33793;-83
2023/08/04 06:14:17;;;;;;;0.37;0.37;;;;;;;23.54;67.95;99304.56;4374977;32;34137;-83
2023/08/04 06:16:44;;;;;;;0.00;0.00;;;;;;;23.60;66.97;99307.47;4373015;32;33926;-83
2023/08/04 06:19:12;;;;;;;0.25;0.17;;;;;;;23.74;66.36;99309.59;4389223;32;33431;-83
2023/08/04 06:21:40;;;;;;;2.00;1.00;;;;;;;23.79;65.59;99316.34;4391567;32;33295;-83
2023/08/04 06:24:08;;;;;;;0.70;0.70;;;;;;;24.00;64.97;99311.34;4375573;32;34048;-87
2023/08/04 06:26:36;;;;;;;0.10;0.10;;;;;;;24.30;65.01;99317.13;4397071;32;34480;-87
2023/08/04 06:29:03;;;;;;;0.30;0.30;;;;;;;24.09;64.03;99313.06;4384005;32;31639;-87
2023/08/04 06:31:31;;;;;;;1.02;0.68;;;;;;;24.23;63.10;99316.97;4385715;32;32522;-87
2023/08/04 06:33:59;;;;;;;0.00;0.00;;;;;;;24.25;62.56;99312.22;4389861;32;33314;-87
2023/08/04 06:36:26;;;;;;;0.45;0.30;;;;;;;24.51;62.12;99318.38;4385183;32;32630;-87
2023/08/04 06:38:54;;;;;;;1.70;0.30;;;;;;;24.50;62.58;99315.84;4390883;32;34007;-87
2023/08/04 06:41:23;;;;;;;0.28;0.28;;;;;;;24.82;62.18;99314.13;4383183;32;34096;-87
2023/08/04 06:43:50;;;;;;;0.15;0.15;;;;;;;24.45;62.03;99319.03;4374518;32;34316;-87
2023/08/04 06:46:18;;;;;;;0.40;0.40;;;;;;;24.65;62.20;99327.66;4384600;32;33682;-87
2023/08/04 06:48:46;;;;;;;0.35;0.35;;;;;;;25.16;59.91;99331.03;4384811;32;33259;-87
2023/08/04 06:51:14;;;;;;;0.13;0.13;;;;;;;25.06;63.41;99341.09;4372086;32;33728;-87
2023/08/04 06:53:41;;;;;;;0.30;0.30;;;;;;;24.61;64.41;99350.59;4372478;32;33314;-86
2023/08/04 06:56:09;;;;;;;0.62;0.62;;;;;;;24.52;62.31;99348.91;4383991;32;32533;-87
2023/08/04 06:58:37;;;;;;;0.35;0.35;;;;;;;24.74;61.46;99352.81;4383347;32;31641;-87
2023/08/04 07:01:04;;;;;;;0.10;0.10;;;;;;;24.83;61.36;99353.63;4373111;32;34270;-87
2023/08/04 07:03:33;;;;;;;0.10;0.10;;;;;;;24.72;60.52;99347.53;4384569;32;32730;-87
2023/08/04 07:06:01;;;;;;;3.72;0.32;;;;;;;24.51;61.72;99358.00;4372510;32;33155;-87
2023/08/04 07:08:28;;;;;;;0.10;0.10;;;;;;;24.48;61.95;99371.81;4373203;32;34397;-87
2023/08/04 07:10:56;;;;;;;0.25;0.13;;;;;;;24.64;61.39;99366.47;4380697;32;35811;-88
2023/08/04 07:13:24;;;;;;;3.20;0.80;;;;;;;24.66;63.04;99364.44;4381985;32;33308;-87
2023/08/04 07:15:59;;;;;;;0.45;0.45;;;;;;;24.73;63.06;99364.59;4369550;32;32810;-88
2023/08/04 07:18:28;;;;;;;0.35;0.35;;;;;;;24.76;62.50;99373.19;4367414;32;33004;-87
2023/08/04 07:21:05;;;;;;;0.10;0.10;;;;;;;24.92;62.56;99374.22;4369250;32;32338;-88
2023/08/04 07:23:33;;;;;;;0.10;0.10;;;;;;;25.00;61.91;99364.25;4365498;32;32509;-88
2023/08/04 07:26:02;;;;;;;0.10;0.10;;;;;;;25.08;61.18;99368.84;4376119;32;33281;-88
2023/08/04 07:28:33;;;;;;;0.70;0.35;;;;;;;25.08;61.72;99366.16;4376479;32;32663;-87
2023/08/04 07:31:05;;;;;;;0.00;0.00;;;;;;;24.47;63.60;99372.84;4377343;32;34541;-88
2023/08/04 07:33:33;;;;;;;0.10;0.10;;;;;;;24.66;63.19;99367.13;4375507;32;33225;-88
2023/08/04 07:36:01;;;;;;;0.37;0.37;;;;;;;24.68;62.78;99377.75;4376416;32;33038;-88
2023/08/04 07:38:29;;;;;;;0.03;0.03;;;;;;;24.63;62.59;99399.84;4389712;32;35220;-91
2023/08/04 07:40:57;;;;;;;0.17;0.17;;;;;;;24.53;61.88;99394.59;4387546;32;32303;-89
2023/08/04 07:43:26;;;;;;;0.13;0.13;;;;;;;24.78;61.38;99397.31;4395123;32;32661;-88
2023/08/04 07:45:54;;;;;;;0.37;0.37;;;;;;;24.99;61.41;99404.94;4380649;32;32829;-89
2023/08/04 07:48:22;;;;;;;1.10;0.73;;;;;;;25.10;61.58;99398.37;4382360;32;33322;-90
2023/08/04 07:50:51;;;;;;;0.37;0.37;;;;;;;25.10;61.50;99393.81;4381760;32;33069;-91
2023/08/04 07:53:19;;;;;;;0.73;0.73;;;;;;;25.29;60.21;99379.94;4387661;32;32839;-89
2023/08/04 07:55:55;;;;;;;0.10;0.10;;;;;;;25.72;61.59;99376.97;4375315;32;33903;-89
2023/08/04 07:58:23;;;;;;;1.85;1.40;;;;;;;25.98;56.01;99380.28;4387937;32;32722;-89
2023/08/04 08:00:51;;;;;;;0.05;0.05;;;;;;;26.29;56.99;99374.84;4387461;32;33236;-89
2023/08/04 08:03:19;;;;;;;0.47;0.35;;;;;;;26.21;52.27;99372.22;4373076;32;33590;-89
2023/08/04 08:05:47;;;;;;;0.00;0.00;;;;;;;26.20;55.73;99367.81;4385846;32;32117;-90
2023/08/04 08:08:18;;;;;;;0.00;0.00;;;;;;;26.11;56.62;99368.91;4385111;32;32877;-89
2023/08/04 08:10:46;;;;;;;0.70;0.70;;;;;;;26.22;57.27;99371.19;4373205;32;33223;-89
2023/08/04 08:13:14;;;;;;;0.10;0.10;;;;;;;26.29;56.12;99366.72;4361290;32;33828;-89
2023/08/04 08:15:41;;;;;;;0.55;0.40;;;;;;;26.78;55.04;99365.59;4385076;32;32760;-87
2023/08/04 08:18:09;;;;;;;0.10;0.10;;;;;;;27.04;52.71;99362.47;4364730;32;32704;-89
2023/08/04 08:20:44;;;;;;;0.10;0.10;;;;;;;26.68;53.24;99364.97;4369286;32;32331;-89
2023/08/04 08:23:11;;;;;;;0.10;0.10;;;;;;;26.65;55.77;99368.06;4370842;32;33064;-88
2023/08/04 08:25:41;;;;;;;0.30;0.22;;;;;;;26.75;53.43;99352.41;4382837;32;32400;-89
2023/08/04 08:28:09;;;;;;;0.47;0.30;;;;;;;26.76;53.45;99348.66;4372089;32;32682;-89
2023/08/04 08:30:37;;;;;;;0.15;0.10;;;;;;;26.74;55.73;99337.19;4383636;32;32849;-88
2023/08/04 08:33:04;;;;;;;0.05;0.05;;;;;;;26.84;54.73;99342.34;4371524;32;34208;-89
2023/08/04 08:35:32;;;;;;;0.00;0.00;;;;;;;26.85;55.70;99335.91;4372081;32;32785;-89
2023/08/04 08:38:00;;;;;;;1.45;0.22;;;;;;;26.95;54.12;99339.19;4379246;32;32445;-89
2023/08/04 08:40:28;;;;;;;0.10;0.10;;;;;;;26.68;54.41;99349.59;4384125;32;33230;-88
2023/08/04 08:42:57;;;;;;;0.03;0.03;;;;;;;26.79;55.35;99346.44;4363079;32;33924;-89
2023/08/04 08:45:29;;;;;;;0.50;0.40;;;;;;;27.02;53.54;99342.88;4382380;32;34305;-89
2023/08/04 08:47:57;;;;;;;0.85;0.30;;;;;;;27.38;53.16;99350.31;4371612;32;33202;-88
2023/08/04 08:50:27;;;;;;;0.28;0.22;;;;;;;27.26;51.69;99358.91;4365949;32;33861;-88
2023/08/04 08:53:01;;;;;;;0.13;0.13;;;;;;;27.76;48.84;99365.50;4380466;32;34336;-89
2023/08/04 08:55:30;;;;;;;0.10;0.10;;;;;;;27.76;51.14;99379.06;4378175;32;32646;-89
2023/08/04 08:57:58;;;;;;;1.95;0.50;;;;;;;27.97;49.58;99372.03;4372444;32;32987;-89
2023/08/04 09:00:26;;;;;;;0.20;0.20;;;;;;;27.76;51.61;99373.63;4372606;32;32927;-88
2023/08/04 09:02:53;;;;;;;0.20;0.20;;;;;;;28.06;49.90;99371.75;4405861;32;33644;-89
2023/08/04 09:05:22;;;;;;;0.20;0.20;;;;;;;28.41;49.39;99368.41;4367735;32;33536;-89
2023/08/04 09:07:50;;;;;;;0.45;0.45;;;;;;;28.36;51.02;99374.41;4394162;32;33268;-89
2023/08/04 09:10:19;;;;;;;0.28;0.28;;;;;;;28.25;50.03;99369.44;4373870;32;32650;-91
2023/08/04 09:12:48;;;;;;;0.10;0.10;;;;;;;28.42;48.48;99365.47;4392806;32;32687;-88
2023/08/04 09:15:16;;;;;;;0.40;0.17;;;;;;;28.11;50.68;99362.19;4374663;32;33325;-89
2023/08/04 09:17:44;;;;;;;0.00;0.00;;;;;;;28.42;51.21;99359.22;4371327;32;33543;-89
2023/08/04 09:20:27;;;;;;;0.35;0.30;;;;;;;28.57;48.89;99355.41;4373913;32;33223;-90
2023/08/04 09:22:54;;;;;;;;;;;;;;;28.55;50.73;99364.78;4371861;32;34396;-89
2023/08/04 09:25:22;;;;;;;0.17;0.17;;;;;;;28.62;49.26;99352.09;4386332;32;34114;-89
2023/08/04 09:27:50;;;;;;;0.30;0.30;;;;;;;28.66;50.62;99355.28;4388007;32;32722;-89
2023/08/04 09:30:18;;;;;;;0.30;0.30;;;;;;;28.88;51.46;99353.41;4376872;32;31913;-89
2023/08/04 09:32:49;;;;;;;0.85;0.52;;;;;;;28.65;53.24;99351.72;4376007;32;34014;-87
2023/08/04 09:35:19;;;;;;;0.32;0.20;;;;;;;28.33;51.94;99348.44;4372940;32;34597;-88
2023/08/04 09:37:50;;;;;;;0.57;0.52;;;;;;;28.75;51.80;99348.66;4375136;32;33022;-88
2023/08/04 09:40:20;;;;;;;0.98;0.20;;;;;;;28.51;52.70;99339.88;4386262;32;32939;-88
2023/08/04 09:42:48;;;;;;;0.30;0.30;;;;;;;29.05;49.76;99338.50;4375569;32;33939;-89
2023/08/04 09:45:17;;;;;;;0.45;0.45;;;;;;;29.24;48.87;99326.91;4375496;32;32805;-88
2023/08/04 09:47:51;;;;;;;0.08;0.08;;;;;;;29.20;48.46;99320.22;4374828;32;33333;-88
2023/08/04 09:50:19;;;;;;;0.30;0.30;;;;;;;29.03;48.90;99307.97;4375489;32;33257;-87
2023/08/04 09:52:47;;;;;;;0.32;0.32;;;;;;;28.03;52.32;99317.00;4387962;32;34630;-87
2023/08/04 09:55:15;;;;;;;0.45;0.43;;;;;;;28.72;49.39;99322.75;4387887;32;34281;-87
2023/08/04 09:57:43;;;;;;;0.28;0.28;;;;;;;28.69;50.17;99317.69;4369830;32;32308;-87
2023/08/04 10:00:11;;;;;;;0.35;0.30;;;;;;;28.94;50.96;99320.00;4388303;32;32137;-87
2023/08/04 10:02:41;;;;;;;0.15;0.15;;;;;;;28.85;50.95;99322.00;4373916;32;33238;-87
2023/08/04 10:05:11;;;;;;;0.20;0.20;;;;;;;29.34;48.91;99313.84;4370361;32;36612;-87
2023/08/04 10:07:40;;;;;;;11.40;0.43;;;;;;;29.39;47.60;99313.22;4375684;32;32981;-87
2023/08/04 10:10:08;;;;;;;0.70;0.70;;;;;;;28.95;50.03;99318.97;4375249;32;33598;-87
2023/08/04 10:12:37;;;;;;;0.40;0.40;;;;;;;28.53;49.70;99312.50;4378122;32;33247;-87
2023/08/04 10:15:07;;;;;;;0.40;0.40;;;;;;;29.01;51.09;99323.66;4374236;32;33928;-87
2023/08/04 10:17:35;;;;;;;0.25;0.22;;;;;;;28.87;49.90;99324.53;4376737;32;32794;-88
2023/08/04 10:20:05;;;;;;;1.08;0.43;;;;;;;29.44;49.22;99318.06;4388248;32;32742;-87
2023/08/04 10:22:33;;;;;;;0.60;0.50;;;;;;;29.20;48.83;99314.78;4387420;32;33362;-88
2023/08/04 10:25:12;;;;;;;0.10;0.10;;;;;;;29.50;47.60;99317.25;4388028;32;32616;-87
2023/08/04 10:27:48;;;;;;;0.22;0.22;;;;;;;30.14;45.10;99316.94;4385857;32;33391;-87
2023/08/04 10:30:16;;;;;;;2.70;1.15;;;;;;;29.76;47.06;99311.97;4375284;32;33770;-86
2023/08/04 10:32:44;;;;;;;1.58;0.57;;;;;;;29.56;46.76;99316.47;4373957;32;33250;-88
2023/08/04 10:35:20;;;;;;;0.52;0.52;;;;;;;29.33;46.47;99314.00;4377078;32;33405;-88
2023/08/04 10:37:50;;;;;;;0.75;0.30;;;;;;;29.76;48.22;99314.69;4387368;32;32310;-87
2023/08/04 10:40:34;;;;;;;0.20;0.20;;;;;;;29.48;46.74;99316.59;4375503;32;34340;-87
2023/08/04 10:43:07;;;;;;;0.60;0.37;;;;;;;29.91;46.20;99306.41;4375835;32;33606;-87
2023/08/04 10:45:52;;;;;;;0.00;0.00;;;;;;;29.93;44.88;99314.34;4384596;32;32943;-87
2023/08/04 10:48:21;;;;;;;0.52;0.52;;;;;;;29.74;46.39;99315.94;4375321;32;33430;-88
2023/08/04 10:50:50;;;;;;;0.03;0.03;;;;;;;29.82;45.78;99315.78;4387858;32;33030;-88
2023/08/04 10:53:18;;;;;;;0.37;0.32;;;;;;;30.63;43.98;99310.34;4388436;32;33576;-87
2023/08/04 10:55:54;;;;;;;0.37;0.25;;;;;;;30.73;42.73;99315.41;4388739;32;34751;-87
2023/08/04 10:58:23;;;;;;;0.57;0.30;;;;;;;30.49;44.45;99314.09;4380790;32;33490;-87
2023/08/04 11:00:53;;;;;;;0.15;0.15;;;;;;;29.66;45.92;99314.22;4387999;32;34626;-87
2023/08/04 11:03:29;;;;;;;1.17;0.13;;;;;;;29.40;46.99;99314.06;4384907;32;33956;-87
2023/08/04 11:05:57;;;;;;;0.30;0.30;;;;;;;29.96;46.04;99305.75;4391121;32;33819;-87
2023/08/04 11:08:25;;;;;;;0.10;0.10;;;;;;;30.08;45.39;99323.19;4372695;32;33816;-87
2023/08/04 11:10:55;;;;;;;0.40;0.40;;;;;;;30.14;43.77;99324.28;4390031;32;32577;-88
2023/08/04 11:13:24;;;;;;;0.10;0.10;;;;;;;29.78;44.83;99315.34;4365785;32;31683;-88
2023/08/04 11:15:55;;;;;;;0.55;0.55;;;;;;;29.46;46.17;99318.69;4390313;32;32849;-87
2023/08/04 11:18:24;;;;;;;0.15;0.15;;;;;;;29.88;46.36;99311.41;4384524;32;32576;-88
2023/08/04 11:20:53;;;;;;;0.20;0.20;;;;;;;29.61;45.80;99315.87;4385127;32;32772;-88
2023/08/04 11:23:29;;;;;;;0.47;0.30;;;;;;;29.24;47.05;99316.03;4383992;32;33756;-88
2023/08/04 11:25:58;;;;;;;0.40;0.40;;;;;;;29.50;46.21;99318.09;4376259;32;33299;-88
2023/08/04 11:28:26;;;;;;;0.10;0.10;;;;;;;29.66;46.01;99310.66;4365298;32;33462;-88
2023/08/04 11:31:04;;;;;;;0.60;0.50;;;;;;;29.94;45.71;99310.56;4390492;32;33186;-88
2023/08/04 11:33:32;;;;;;;0.75;0.32;;;;;;;30.85;43.75;99300.94;4362583;32;33258;-89
2023/08/04 11:36:03;;;;;;;0.13;0.13;;;;;;;31.15;42.35;99295.03;4372891;32;34781;-89
2023/08/04 11:38:31;;;;;;;0.50;0.50;;;;;;;30.94;43.65;99298.00;4383896;32;32135;-90
2023/08/04 11:41:01;;;;;;;0.55;0.55;;;;;;;30.84;44.25;99295.69;4364562;32;32794;-89